East Barre, Vermont
Current Conditions -  °F | °C
As of 3:51 PM on Thursday 18 Dec 2014 (Local Time) from KMPV Reporting Station
Unknown Precip Unknown Precip  
Wind Chill: 16°   Ceiling: 1400
Heat Index: 29°   Visibility: 7mi
Dew Point: 24°   Wind: 21mph
Humidity: 82%   Direction: 290°WNW
Pressure: 29.84"   Gusts: 31mph
Location:  44.16°N, 72.45°W
Report Text: KMPV 182051Z AUTO 29018G27KT 7SM UP OVC014 M02/M04 A2984 RMK AO2 PK WND 31027/2049 UPB20E22B48SNE20 SLP120 P0001 60001 T10171044 53013
Loading
Personal Weather Stations






























Interactive Weather Map New forecast layout! Learn more

10-Day Weather Forecast

Advertisements
Track Severe Weather on mobile